sensor_id;sensor_type;location;lat;lon;timestamp;P1;durP1;ratioP1;P2;durP2;ratioP2
58123;SDS011;46725;48.068;20.832;2023-04-02T00:02:25;7.28;;;4.68;;
58123;SDS011;46725;48.068;20.832;2023-04-02T00:07:51;9.13;;;5.22;;
58123;SDS011;46725;48.068;20.832;2023-04-02T00:10:33;9.20;;;5.15;;
58123;SDS011;46725;48.068;20.832;2023-04-02T00:15:45;9.25;;;4.93;;
58123;SDS011;46725;48.068;20.832;2023-04-02T00:18:13;9.20;;;5.03;;
58123;SDS011;46725;48.068;20.832;2023-04-02T00:20:40;8.52;;;5.47;;
58123;SDS011;46725;48.068;20.832;2023-04-02T00:23:11;11.48;;;6.10;;
58123;SDS011;46725;48.068;20.832;2023-04-02T00:25:38;12.65;;;6.40;;
58123;SDS011;46725;48.068;20.832;2023-04-02T00:28:14;11.05;;;6.70;;
58123;SDS011;46725;48.068;20.832;2023-04-02T00:33:16;14.98;;;6.60;;
58123;SDS011;46725;48.068;20.832;2023-04-02T00:35:43;13.88;;;6.53;;
58123;SDS011;46725;48.068;20.832;2023-04-02T00:38:20;15.57;;;7.28;;
58123;SDS011;46725;48.068;20.832;2023-04-02T00:40:47;13.40;;;6.82;;
58123;SDS011;46725;48.068;20.832;2023-04-02T00:43:14;14.10;;;7.22;;
58123;SDS011;46725;48.068;20.832;2023-04-02T00:45:41;11.80;;;6.65;;
58123;SDS011;46725;48.068;20.832;2023-04-02T00:48:36;13.57;;;7.30;;
58123;SDS011;46725;48.068;20.832;2023-04-02T00:51:12;12.98;;;7.45;;
58123;SDS011;46725;48.068;20.832;2023-04-02T00:53:38;13.15;;;6.80;;
58123;SDS011;46725;48.068;20.832;2023-04-02T00:56:10;12.18;;;7.60;;
58123;SDS011;46725;48.068;20.832;2023-04-02T00:58:37;11.65;;;7.30;;
58123;SDS011;46725;48.068;20.832;2023-04-02T01:01:14;12.55;;;7.18;;
58123;SDS011;46725;48.068;20.832;2023-04-02T01:03:41;13.57;;;7.53;;
58123;SDS011;46725;48.068;20.832;2023-04-02T01:06:10;13.95;;;7.18;;
58123;SDS011;46725;48.068;20.832;2023-04-02T01:08:57;12.65;;;7.28;;
58123;SDS011;46725;48.068;20.832;2023-04-02T01:14:19;19.20;;;8.68;;
58123;SDS011;46725;48.068;20.832;2023-04-02T01:22:08;11.80;;;6.85;;
58123;SDS011;46725;48.068;20.832;2023-04-02T01:24:38;12.73;;;7.10;;
58123;SDS011;46725;48.068;20.832;2023-04-02T01:27:05;13.30;;;7.03;;
58123;SDS011;46725;48.068;20.832;2023-04-02T01:29:39;13.07;;;7.18;;
58123;SDS011;46725;48.068;20.832;2023-04-02T01:32:13;13.25;;;7.20;;
58123;SDS011;46725;48.068;20.832;2023-04-02T01:34:40;13.75;;;7.85;;
58123;SDS011;46725;48.068;20.832;2023-04-02T01:44:52;10.80;;;6.75;;
58123;SDS011;46725;48.068;20.832;2023-04-02T01:47:21;12.15;;;6.95;;
58123;SDS011;46725;48.068;20.832;2023-04-02T01:49:51;11.68;;;6.90;;
58123;SDS011;46725;48.068;20.832;2023-04-02T01:52:18;12.23;;;6.78;;
58123;SDS011;46725;48.068;20.832;2023-04-02T01:54:50;11.98;;;7.03;;
58123;SDS011;46725;48.068;20.832;2023-04-02T01:57:17;13.05;;;7.05;;
58123;SDS011;46725;48.068;20.832;2023-04-02T01:59:44;12.15;;;7.45;;
58123;SDS011;46725;48.068;20.832;2023-04-02T02:02:11;11.10;;;6.97;;
58123;SDS011;46725;48.068;20.832;2023-04-02T02:04:37;13.93;;;7.85;;
58123;SDS011;46725;48.068;20.832;2023-04-02T02:07:04;13.98;;;8.07;;
58123;SDS011;46725;48.068;20.832;2023-04-02T02:09:34;12.07;;;7.40;;
58123;SDS011;46725;48.068;20.832;2023-04-02T02:12:01;12.43;;;8.30;;
58123;SDS011;46725;48.068;20.832;2023-04-02T02:14:29;15.40;;;8.52;;
58123;SDS011;46725;48.068;20.832;2023-04-02T02:16:59;17.55;;;9.02;;
58123;SDS011;46725;48.068;20.832;2023-04-02T02:19:31;13.90;;;8.60;;
58123;SDS011;46725;48.068;20.832;2023-04-02T02:24:28;15.50;;;7.18;;
58123;SDS011;46725;48.068;20.832;2023-04-02T02:29:59;11.07;;;6.80;;
58123;SDS011;46725;48.068;20.832;2023-04-02T02:32:28;12.52;;;7.30;;
58123;SDS011;46725;48.068;20.832;2023-04-02T02:34:57;9.98;;;6.35;;
58123;SDS011;46725;48.068;20.832;2023-04-02T02:37:29;15.40;;;8.32;;
58123;SDS011;46725;48.068;20.832;2023-04-02T02:39:59;13.30;;;7.43;;
58123;SDS011;46725;48.068;20.832;2023-04-02T02:42:31;13.98;;;7.20;;
58123;SDS011;46725;48.068;20.832;2023-04-02T02:44:59;13.27;;;6.97;;
58123;SDS011;46725;48.068;20.832;2023-04-02T02:47:33;14.32;;;8.07;;
58123;SDS011;46725;48.068;20.832;2023-04-02T02:50:01;13.32;;;7.72;;
58123;SDS011;46725;48.068;20.832;2023-04-02T02:52:29;14.85;;;8.10;;
58123;SDS011;46725;48.068;20.832;2023-04-02T02:55:00;13.77;;;7.65;;
58123;SDS011;46725;48.068;20.832;2023-04-02T02:57:32;14.50;;;7.57;;
58123;SDS011;46725;48.068;20.832;2023-04-02T03:00:00;13.27;;;7.93;;
58123;SDS011;46725;48.068;20.832;2023-04-02T03:02:30;13.05;;;6.85;;
58123;SDS011;46725;48.068;20.832;2023-04-02T03:04:59;12.73;;;6.65;;
58123;SDS011;46725;48.068;20.832;2023-04-02T03:07:27;10.73;;;6.18;;
58123;SDS011;46725;48.068;20.832;2023-04-02T03:10:11;15.20;;;7.13;;
58123;SDS011;46725;48.068;20.832;2023-04-02T03:15:20;14.23;;;6.97;;
58123;SDS011;46725;48.068;20.832;2023-04-02T03:22:55;8.98;;;5.43;;
58123;SDS011;46725;48.068;20.832;2023-04-02T03:27:49;15.43;;;8.27;;
58123;SDS011;46725;48.068;20.832;2023-04-02T03:32:49;12.85;;;7.10;;
58123;SDS011;46725;48.068;20.832;2023-04-02T03:37:59;12.77;;;7.15;;
58123;SDS011;46725;48.068;20.832;2023-04-02T03:40:30;11.95;;;6.32;;
58123;SDS011;46725;48.068;20.832;2023-04-02T03:43:00;11.68;;;6.28;;
58123;SDS011;46725;48.068;20.832;2023-04-02T03:45:31;11.98;;;7.22;;
58123;SDS011;46725;48.068;20.832;2023-04-02T03:50:30;14.90;;;6.93;;
58123;SDS011;46725;48.068;20.832;2023-04-02T03:52:59;13.30;;;6.63;;
58123;SDS011;46725;48.068;20.832;2023-04-02T03:55:28;9.90;;;5.70;;
58123;SDS011;46725;48.068;20.832;2023-04-02T04:00:47;11.40;;;6.72;;
58123;SDS011;46725;48.068;20.832;2023-04-02T04:03:11;10.55;;;6.47;;
58123;SDS011;46725;48.068;20.832;2023-04-02T04:05:43;9.60;;;6.22;;
58123;SDS011;46725;48.068;20.832;2023-04-02T04:08:17;12.20;;;6.30;;
58123;SDS011;46725;48.068;20.832;2023-04-02T04:10:45;10.57;;;5.95;;
58123;SDS011;46725;48.068;20.832;2023-04-02T04:13:16;15.40;;;6.03;;
58123;SDS011;46725;48.068;20.832;2023-04-02T04:18:18;10.13;;;6.13;;
58123;SDS011;46725;48.068;20.832;2023-04-02T04:20:56;10.73;;;6.07;;
58123;SDS011;46725;48.068;20.832;2023-04-02T04:25:58;12.27;;;6.15;;
58123;SDS011;46725;48.068;20.832;2023-04-02T04:28:41;11.17;;;6.70;;
58123;SDS011;46725;48.068;20.832;2023-04-02T04:33:38;13.57;;;6.97;;
58123;SDS011;46725;48.068;20.832;2023-04-02T04:36:14;12.05;;;7.28;;
58123;SDS011;46725;48.068;20.832;2023-04-02T04:38:44;9.85;;;5.78;;
58123;SDS011;46725;48.068;20.832;2023-04-02T04:41:14;10.20;;;6.30;;
58123;SDS011;46725;48.068;20.832;2023-04-02T04:43:48;13.88;;;7.28;;
58123;SDS011;46725;48.068;20.832;2023-04-02T04:46:17;11.95;;;5.95;;
58123;SDS011;46725;48.068;20.832;2023-04-02T04:48:56;10.48;;;6.20;;
58123;SDS011;46725;48.068;20.832;2023-04-02T04:51:28;12.13;;;6.70;;
58123;SDS011;46725;48.068;20.832;2023-04-02T04:53:58;9.95;;;5.78;;
58123;SDS011;46725;48.068;20.832;2023-04-02T04:56:26;14.50;;;7.13;;
58123;SDS011;46725;48.068;20.832;2023-04-02T05:01:21;10.60;;;6.53;;
58123;SDS011;46725;48.068;20.832;2023-04-02T05:09:01;15.00;;;9.00;;
58123;SDS011;46725;48.068;20.832;2023-04-02T05:13:59;13.77;;;8.10;;
58123;SDS011;46725;48.068;20.832;2023-04-02T05:16:32;12.82;;;7.40;;
58123;SDS011;46725;48.068;20.832;2023-04-02T05:26:45;11.25;;;6.68;;
58123;SDS011;46725;48.068;20.832;2023-04-02T05:29:21;12.25;;;6.97;;
58123;SDS011;46725;48.068;20.832;2023-04-02T05:34:23;11.73;;;6.00;;
58123;SDS011;46725;48.068;20.832;2023-04-02T05:36:50;13.43;;;6.32;;
58123;SDS011;46725;48.068;20.832;2023-04-02T05:39:19;16.60;;;6.93;;
58123;SDS011;46725;48.068;20.832;2023-04-02T05:41:46;10.50;;;6.25;;
58123;SDS011;46725;48.068;20.832;2023-04-02T05:44:31;12.80;;;6.53;;
58123;SDS011;46725;48.068;20.832;2023-04-02T05:47:05;11.02;;;6.53;;
58123;SDS011;46725;48.068;20.832;2023-04-02T05:49:41;11.20;;;6.47;;
58123;SDS011;46725;48.068;20.832;2023-04-02T05:52:10;10.93;;;6.00;;
58123;SDS011;46725;48.068;20.832;2023-04-02T05:54:38;10.52;;;5.35;;
58123;SDS011;46725;48.068;20.832;2023-04-02T05:57:09;11.07;;;6.35;;
58123;SDS011;46725;48.068;20.832;2023-04-02T05:59:37;11.55;;;5.85;;
58123;SDS011;46725;48.068;20.832;2023-04-02T06:04:52;10.40;;;5.47;;
58123;SDS011;46725;48.068;20.832;2023-04-02T06:10:20;12.60;;;5.80;;
58123;SDS011;46725;48.068;20.832;2023-04-02T06:12:54;12.40;;;5.82;;
58123;SDS011;46725;48.068;20.832;2023-04-02T06:15:28;11.35;;;6.05;;
58123;SDS011;46725;48.068;20.832;2023-04-02T06:20:23;9.68;;;5.55;;
58123;SDS011;46725;48.068;20.832;2023-04-02T06:22:56;8.98;;;5.40;;
58123;SDS011;46725;48.068;20.832;2023-04-02T06:25:26;10.40;;;5.93;;
58123;SDS011;46725;48.068;20.832;2023-04-02T06:27:53;17.02;;;7.72;;
58123;SDS011;46725;48.068;20.832;2023-04-02T06:30:23;14.00;;;7.55;;
58123;SDS011;46725;48.068;20.832;2023-04-02T06:32:50;9.95;;;5.82;;
58123;SDS011;46725;48.068;20.832;2023-04-02T06:35:17;10.15;;;5.68;;
58123;SDS011;46725;48.068;20.832;2023-04-02T06:37:47;10.43;;;5.63;;
58123;SDS011;46725;48.068;20.832;2023-04-02T06:40:22;11.93;;;5.47;;
58123;SDS011;46725;48.068;20.832;2023-04-02T06:42:50;9.35;;;5.82;;
58123;SDS011;46725;48.068;20.832;2023-04-02T06:45:26;12.30;;;5.60;;
58123;SDS011;46725;48.068;20.832;2023-04-02T06:47:54;11.50;;;6.00;;
58123;SDS011;46725;48.068;20.832;2023-04-02T06:50:22;7.78;;;5.00;;
58123;SDS011;46725;48.068;20.832;2023-04-02T06:52:52;10.52;;;5.60;;
58123;SDS011;46725;48.068;20.832;2023-04-02T06:57:46;11.90;;;5.60;;
58123;SDS011;46725;48.068;20.832;2023-04-02T07:03:06;11.63;;;6.20;;
58123;SDS011;46725;48.068;20.832;2023-04-02T07:05:32;12.90;;;7.00;;
58123;SDS011;46725;48.068;20.832;2023-04-02T07:07:58;8.25;;;5.13;;
58123;SDS011;46725;48.068;20.832;2023-04-02T07:10:24;10.00;;;4.75;;
58123;SDS011;46725;48.068;20.832;2023-04-02T07:12:51;9.02;;;4.60;;
58123;SDS011;46725;48.068;20.832;2023-04-02T07:15:17;7.65;;;4.72;;
58123;SDS011;46725;48.068;20.832;2023-04-02T07:17:44;9.23;;;4.97;;
58123;SDS011;46725;48.068;20.832;2023-04-02T07:20:23;7.35;;;4.10;;
58123;SDS011;46725;48.068;20.832;2023-04-02T07:22:51;9.35;;;5.20;;
58123;SDS011;46725;48.068;20.832;2023-04-02T07:25:17;10.95;;;5.72;;
58123;SDS011;46725;48.068;20.832;2023-04-02T07:27:43;9.43;;;4.57;;
58123;SDS011;46725;48.068;20.832;2023-04-02T07:30:09;14.30;;;5.95;;
58123;SDS011;46725;48.068;20.832;2023-04-02T07:32:35;11.55;;;5.82;;
58123;SDS011;46725;48.068;20.832;2023-04-02T07:35:02;13.13;;;7.35;;
58123;SDS011;46725;48.068;20.832;2023-04-02T07:37:29;11.63;;;6.75;;
58123;SDS011;46725;48.068;20.832;2023-04-02T07:39:55;10.90;;;6.53;;
58123;SDS011;46725;48.068;20.832;2023-04-02T07:42:21;10.23;;;6.00;;
58123;SDS011;46725;48.068;20.832;2023-04-02T07:44:48;11.52;;;6.72;;
58123;SDS011;46725;48.068;20.832;2023-04-02T07:47:15;17.63;;;6.95;;
58123;SDS011;46725;48.068;20.832;2023-04-02T07:49:41;13.90;;;7.30;;
58123;SDS011;46725;48.068;20.832;2023-04-02T07:52:07;9.23;;;5.40;;
58123;SDS011;46725;48.068;20.832;2023-04-02T07:54:33;8.02;;;4.93;;
58123;SDS011;46725;48.068;20.832;2023-04-02T07:56:59;10.07;;;5.32;;
58123;SDS011;46725;48.068;20.832;2023-04-02T07:59:26;11.63;;;6.57;;
58123;SDS011;46725;48.068;20.832;2023-04-02T08:01:52;11.80;;;6.93;;
58123;SDS011;46725;48.068;20.832;2023-04-02T08:04:19;13.10;;;6.72;;
58123;SDS011;46725;48.068;20.832;2023-04-02T08:06:45;12.25;;;6.50;;
58123;SDS011;46725;48.068;20.832;2023-04-02T08:09:12;17.10;;;8.80;;
58123;SDS011;46725;48.068;20.832;2023-04-02T08:11:38;16.27;;;9.20;;
58123;SDS011;46725;48.068;20.832;2023-04-02T08:14:06;14.57;;;7.57;;
58123;SDS011;46725;48.068;20.832;2023-04-02T08:19:30;14.55;;;8.07;;
58123;SDS011;46725;48.068;20.832;2023-04-02T08:21:59;14.35;;;8.88;;
58123;SDS011;46725;48.068;20.832;2023-04-02T08:24:25;11.77;;;7.88;;
58123;SDS011;46725;48.068;20.832;2023-04-02T08:26:51;14.55;;;7.85;;
58123;SDS011;46725;48.068;20.832;2023-04-02T08:29:18;15.98;;;9.27;;
58123;SDS011;46725;48.068;20.832;2023-04-02T08:31:45;18.17;;;10.68;;
58123;SDS011;46725;48.068;20.832;2023-04-02T08:34:11;13.38;;;7.50;;
58123;SDS011;46725;48.068;20.832;2023-04-02T08:36:37;8.40;;;5.15;;
58123;SDS011;46725;48.068;20.832;2023-04-02T08:39:05;12.73;;;5.80;;
58123;SDS011;46725;48.068;20.832;2023-04-02T08:41:36;12.55;;;6.43;;
58123;SDS011;46725;48.068;20.832;2023-04-02T08:44:27;13.48;;;6.95;;
58123;SDS011;46725;48.068;20.832;2023-04-02T08:46:59;11.30;;;6.22;;
58123;SDS011;46725;48.068;20.832;2023-04-02T08:51:56;9.00;;;5.07;;
58123;SDS011;46725;48.068;20.832;2023-04-02T08:56:54;10.05;;;4.95;;
58123;SDS011;46725;48.068;20.832;2023-04-02T09:04:14;8.65;;;5.25;;
58123;SDS011;46725;48.068;20.832;2023-04-02T09:06:41;10.25;;;6.20;;
58123;SDS011;46725;48.068;20.832;2023-04-02T09:09:08;9.75;;;6.00;;
58123;SDS011;46725;48.068;20.832;2023-04-02T09:11:39;11.05;;;6.10;;
58123;SDS011;46725;48.068;20.832;2023-04-02T09:14:16;11.07;;;6.65;;
58123;SDS011;46725;48.068;20.832;2023-04-02T09:16:45;12.85;;;7.32;;
58123;SDS011;46725;48.068;20.832;2023-04-02T09:19:14;12.32;;;6.05;;
58123;SDS011;46725;48.068;20.832;2023-04-02T09:21:42;10.45;;;5.45;;
58123;SDS011;46725;48.068;20.832;2023-04-02T09:24:12;12.77;;;6.03;;
58123;SDS011;46725;48.068;20.832;2023-04-02T09:26:38;8.57;;;4.60;;
58123;SDS011;46725;48.068;20.832;2023-04-02T09:34:25;9.30;;;5.07;;
58123;SDS011;46725;48.068;20.832;2023-04-02T09:36:49;9.65;;;5.18;;
58123;SDS011;46725;48.068;20.832;2023-04-02T09:39:16;8.65;;;4.45;;
58123;SDS011;46725;48.068;20.832;2023-04-02T09:41:43;9.60;;;4.85;;
58123;SDS011;46725;48.068;20.832;2023-04-02T09:44:11;11.63;;;5.03;;
58123;SDS011;46725;48.068;20.832;2023-04-02T09:46:45;11.43;;;4.45;;
58123;SDS011;46725;48.068;20.832;2023-04-02T09:49:12;7.25;;;3.78;;
58123;SDS011;46725;48.068;20.832;2023-04-02T09:51:41;10.98;;;7.10;;
58123;SDS011;46725;48.068;20.832;2023-04-02T09:54:12;8.82;;;4.80;;
58123;SDS011;46725;48.068;20.832;2023-04-02T09:56:40;10.00;;;4.78;;
58123;SDS011;46725;48.068;20.832;2023-04-02T10:04:15;10.35;;;5.07;;
58123;SDS011;46725;48.068;20.832;2023-04-02T10:06:51;7.20;;;4.38;;
58123;SDS011;46725;48.068;20.832;2023-04-02T10:09:43;10.25;;;4.85;;
58123;SDS011;46725;48.068;20.832;2023-04-02T10:12:09;7.20;;;3.97;;
58123;SDS011;46725;48.068;20.832;2023-04-02T10:14:38;8.68;;;4.70;;
58123;SDS011;46725;48.068;20.832;2023-04-02T10:17:17;8.73;;;4.65;;
58123;SDS011;46725;48.068;20.832;2023-04-02T10:19:54;10.00;;;4.40;;
58123;SDS011;46725;48.068;20.832;2023-04-02T10:22:22;11.35;;;5.82;;
58123;SDS011;46725;48.068;20.832;2023-04-02T10:24:48;8.07;;;4.32;;
58123;SDS011;46725;48.068;20.832;2023-04-02T10:42:45;6.85;;;2.80;;
58123;SDS011;46725;48.068;20.832;2023-04-02T10:47:55;5.70;;;2.67;;
58123;SDS011;46725;48.068;20.832;2023-04-02T10:50:42;5.95;;;2.63;;
58123;SDS011;46725;48.068;20.832;2023-04-02T10:53:16;6.85;;;2.50;;
58123;SDS011;46725;48.068;20.832;2023-04-02T10:55:46;5.05;;;2.53;;
58123;SDS011;46725;48.068;20.832;2023-04-02T10:58:19;4.40;;;1.95;;
58123;SDS011;46725;48.068;20.832;2023-04-02T11:00:47;5.90;;;2.33;;
58123;SDS011;46725;48.068;20.832;2023-04-02T11:03:34;4.68;;;1.73;;
58123;SDS011;46725;48.068;20.832;2023-04-02T11:06:23;9.38;;;1.80;;
58123;SDS011;46725;48.068;20.832;2023-04-02T11:08:47;5.22;;;2.45;;
58123;SDS011;46725;48.068;20.832;2023-04-02T11:11:25;3.30;;;1.30;;
58123;SDS011;46725;48.068;20.832;2023-04-02T11:16:18;4.15;;;1.90;;
58123;SDS011;46725;48.068;20.832;2023-04-02T11:24:01;4.35;;;2.00;;
58123;SDS011;46725;48.068;20.832;2023-04-02T11:26:38;3.58;;;1.50;;
58123;SDS011;46725;48.068;20.832;2023-04-02T11:29:07;3.53;;;1.40;;
58123;SDS011;46725;48.068;20.832;2023-04-02T11:31:34;3.30;;;1.50;;
58123;SDS011;46725;48.068;20.832;2023-04-02T11:34:00;3.65;;;1.50;;
58123;SDS011;46725;48.068;20.832;2023-04-02T11:39:11;3.38;;;1.38;;
58123;SDS011;46725;48.068;20.832;2023-04-02T11:44:38;3.75;;;1.15;;
58123;SDS011;46725;48.068;20.832;2023-04-02T11:47:14;3.33;;;1.48;;
58123;SDS011;46725;48.068;20.832;2023-04-02T11:50:19;3.53;;;1.52;;
58123;SDS011;46725;48.068;20.832;2023-04-02T11:52:34;5.20;;;2.53;;
58123;SDS011;46725;48.068;20.832;2023-04-02T11:55:16;4.45;;;1.77;;
58123;SDS011;46725;48.068;20.832;2023-04-02T11:57:50;6.80;;;2.60;;
58123;SDS011;46725;48.068;20.832;2023-04-02T12:00:22;10.48;;;3.80;;
58123;SDS011;46725;48.068;20.832;2023-04-02T12:08:23;3.38;;;1.50;;
58123;SDS011;46725;48.068;20.832;2023-04-02T12:10:54;4.13;;;1.70;;
58123;SDS011;46725;48.068;20.832;2023-04-02T12:14:06;5.70;;;2.28;;
58123;SDS011;46725;48.068;20.832;2023-04-02T12:16:10;5.20;;;2.45;;
58123;SDS011;46725;48.068;20.832;2023-04-02T12:18:46;5.00;;;2.08;;
58123;SDS011;46725;48.068;20.832;2023-04-02T12:21:18;4.15;;;1.90;;
58123;SDS011;46725;48.068;20.832;2023-04-02T12:23:48;3.78;;;1.50;;
58123;SDS011;46725;48.068;20.832;2023-04-02T12:26:27;6.80;;;2.75;;
58123;SDS011;46725;48.068;20.832;2023-04-02T12:28:54;5.18;;;2.65;;
58123;SDS011;46725;48.068;20.832;2023-04-02T12:31:22;4.18;;;1.60;;
58123;SDS011;46725;48.068;20.832;2023-04-02T12:33:52;3.42;;;1.30;;
58123;SDS011;46725;48.068;20.832;2023-04-02T12:36:19;4.68;;;2.03;;
58123;SDS011;46725;48.068;20.832;2023-04-02T12:38:47;3.78;;;1.50;;
58123;SDS011;46725;48.068;20.832;2023-04-02T12:41:26;3.65;;;1.50;;
58123;SDS011;46725;48.068;20.832;2023-04-02T12:48:53;4.63;;;1.83;;
58123;SDS011;46725;48.068;20.832;2023-04-02T12:51:20;6.20;;;2.20;;
58123;SDS011;46725;48.068;20.832;2023-04-02T12:53:49;4.50;;;1.90;;
58123;SDS011;46725;48.068;20.832;2023-04-02T12:56:17;5.32;;;2.58;;
58123;SDS011;46725;48.068;20.832;2023-04-02T12:58:50;4.85;;;1.90;;
58123;SDS011;46725;48.068;20.832;2023-04-02T13:01:17;5.95;;;2.05;;
58123;SDS011;46725;48.068;20.832;2023-04-02T13:06:29;4.22;;;1.60;;
58123;SDS011;46725;48.068;20.832;2023-04-02T13:08:56;3.00;;;1.40;;
58123;SDS011;46725;48.068;20.832;2023-04-02T13:11:24;5.72;;;2.13;;
58123;SDS011;46725;48.068;20.832;2023-04-02T13:13:59;3.78;;;1.48;;
58123;SDS011;46725;48.068;20.832;2023-04-02T13:16:27;3.00;;;1.13;;
58123;SDS011;46725;48.068;20.832;2023-04-02T13:19:07;2.92;;;1.30;;
58123;SDS011;46725;48.068;20.832;2023-04-02T13:21:34;4.53;;;1.75;;
58123;SDS011;46725;48.068;20.832;2023-04-02T13:24:00;4.55;;;1.75;;
58123;SDS011;46725;48.068;20.832;2023-04-02T13:26:26;3.65;;;1.58;;
58123;SDS011;46725;48.068;20.832;2023-04-02T13:29:03;3.50;;;1.60;;
58123;SDS011;46725;48.068;20.832;2023-04-02T13:31:30;6.13;;;1.48;;
58123;SDS011;46725;48.068;20.832;2023-04-02T13:33:57;3.10;;;1.38;;
58123;SDS011;46725;48.068;20.832;2023-04-02T13:36:23;4.13;;;1.70;;
58123;SDS011;46725;48.068;20.832;2023-04-02T13:38:50;5.47;;;1.98;;
58123;SDS011;46725;48.068;20.832;2023-04-02T13:41:18;4.60;;;2.00;;
58123;SDS011;46725;48.068;20.832;2023-04-02T13:43:46;2.80;;;1.15;;
58123;SDS011;46725;48.068;20.832;2023-04-02T13:46:16;3.63;;;1.50;;
58123;SDS011;46725;48.068;20.832;2023-04-02T13:48:43;4.78;;;1.80;;
58123;SDS011;46725;48.068;20.832;2023-04-02T13:51:13;2.97;;;1.40;;
58123;SDS011;46725;48.068;20.832;2023-04-02T13:53:40;2.75;;;1.05;;
58123;SDS011;46725;48.068;20.832;2023-04-02T13:56:06;3.97;;;1.40;;
58123;SDS011;46725;48.068;20.832;2023-04-02T13:58:33;2.75;;;1.13;;
58123;SDS011;46725;48.068;20.832;2023-04-02T14:00:59;4.20;;;1.02;;
58123;SDS011;46725;48.068;20.832;2023-04-02T14:03:25;2.47;;;1.00;;
58123;SDS011;46725;48.068;20.832;2023-04-02T14:11:01;4.43;;;2.38;;
58123;SDS011;46725;48.068;20.832;2023-04-02T14:16:22;4.80;;;2.42;;
58123;SDS011;46725;48.068;20.832;2023-04-02T14:24:08;12.07;;;8.75;;
58123;SDS011;46725;48.068;20.832;2023-04-02T14:29:18;7.40;;;1.33;;
58123;SDS011;46725;48.068;20.832;2023-04-02T14:32:10;6.97;;;2.42;;
58123;SDS011;46725;48.068;20.832;2023-04-02T14:45:28;6.55;;;2.88;;
58123;SDS011;46725;48.068;20.832;2023-04-02T14:48:02;4.88;;;2.42;;
58123;SDS011;46725;48.068;20.832;2023-04-02T14:52:57;5.25;;;2.85;;
58123;SDS011;46725;48.068;20.832;2023-04-02T14:55:30;6.32;;;3.10;;
58123;SDS011;46725;48.068;20.832;2023-04-02T14:57:57;7.07;;;2.67;;
58123;SDS011;46725;48.068;20.832;2023-04-02T15:00:34;5.68;;;2.50;;
58123;SDS011;46725;48.068;20.832;2023-04-02T15:08:11;8.77;;;4.40;;
58123;SDS011;46725;48.068;20.832;2023-04-02T15:13:19;12.73;;;5.30;;
58123;SDS011;46725;48.068;20.832;2023-04-02T15:15:50;5.68;;;2.90;;
58123;SDS011;46725;48.068;20.832;2023-04-02T15:18:18;7.85;;;3.65;;
58123;SDS011;46725;48.068;20.832;2023-04-02T15:28:43;4.95;;;2.53;;
58123;SDS011;46725;48.068;20.832;2023-04-02T15:38:51;10.10;;;4.13;;
58123;SDS011;46725;48.068;20.832;2023-04-02T15:41:21;7.30;;;3.30;;
58123;SDS011;46725;48.068;20.832;2023-04-02T15:43:59;9.18;;;4.13;;
58123;SDS011;46725;48.068;20.832;2023-04-02T15:46:30;17.73;;;7.38;;
58123;SDS011;46725;48.068;20.832;2023-04-02T15:59:48;8.32;;;4.25;;
58123;SDS011;46725;48.068;20.832;2023-04-02T16:02:22;10.43;;;5.55;;
58123;SDS011;46725;48.068;20.832;2023-04-02T16:05:00;15.00;;;6.80;;
58123;SDS011;46725;48.068;20.832;2023-04-02T16:12:27;20.65;;;8.88;;
58123;SDS011;46725;48.068;20.832;2023-04-02T16:14:54;17.73;;;7.68;;
58123;SDS011;46725;48.068;20.832;2023-04-02T16:17:31;7.55;;;2.38;;
58123;SDS011;46725;48.068;20.832;2023-04-02T16:20:04;3.63;;;1.20;;
58123;SDS011;46725;48.068;20.832;2023-04-02T16:22:35;3.28;;;1.45;;
58123;SDS011;46725;48.068;20.832;2023-04-02T16:25:16;6.60;;;1.73;;
58123;SDS011;46725;48.068;20.832;2023-04-02T16:27:44;2.42;;;0.90;;
58123;SDS011;46725;48.068;20.832;2023-04-02T16:35:26;5.13;;;1.38;;
58123;SDS011;46725;48.068;20.832;2023-04-02T16:38:05;7.10;;;2.17;;
58123;SDS011;46725;48.068;20.832;2023-04-02T16:40:38;9.10;;;3.67;;
58123;SDS011;46725;48.068;20.832;2023-04-02T16:43:29;6.85;;;2.63;;
58123;SDS011;46725;48.068;20.832;2023-04-02T16:51:13;6.57;;;3.63;;
58123;SDS011;46725;48.068;20.832;2023-04-02T17:04:09;5.95;;;2.40;;
58123;SDS011;46725;48.068;20.832;2023-04-02T17:06:46;5.40;;;2.55;;
58123;SDS011;46725;48.068;20.832;2023-04-02T17:09:15;5.32;;;2.10;;
58123;SDS011;46725;48.068;20.832;2023-04-02T17:11:44;5.03;;;2.03;;
58123;SDS011;46725;48.068;20.832;2023-04-02T17:14:16;5.43;;;2.40;;
58123;SDS011;46725;48.068;20.832;2023-04-02T17:16:45;8.70;;;5.10;;
58123;SDS011;46725;48.068;20.832;2023-04-02T17:19:15;6.22;;;4.65;;
58123;SDS011;46725;48.068;20.832;2023-04-02T17:21:45;9.65;;;7.38;;
58123;SDS011;46725;48.068;20.832;2023-04-02T17:24:20;8.65;;;6.03;;
58123;SDS011;46725;48.068;20.832;2023-04-02T17:26:51;7.68;;;3.25;;
58123;SDS011;46725;48.068;20.832;2023-04-02T17:29:20;3.80;;;1.60;;
58123;SDS011;46725;48.068;20.832;2023-04-02T17:31:48;6.93;;;4.55;;
58123;SDS011;46725;48.068;20.832;2023-04-02T17:34:15;10.38;;;6.40;;
58123;SDS011;46725;48.068;20.832;2023-04-02T17:39:24;6.55;;;4.20;;
58123;SDS011;46725;48.068;20.832;2023-04-02T17:44:43;4.28;;;2.10;;
58123;SDS011;46725;48.068;20.832;2023-04-02T17:47:32;3.05;;;1.20;;
58123;SDS011;46725;48.068;20.832;2023-04-02T17:52:34;2.75;;;1.17;;
58123;SDS011;46725;48.068;20.832;2023-04-02T17:55:17;2.90;;;0.90;;
58123;SDS011;46725;48.068;20.832;2023-04-02T18:05:59;2.30;;;0.70;;
58123;SDS011;46725;48.068;20.832;2023-04-02T18:08:44;5.30;;;1.80;;
58123;SDS011;46725;48.068;20.832;2023-04-02T18:11:34;4.50;;;1.40;;
58123;SDS011;46725;48.068;20.832;2023-04-02T18:15:02;7.20;;;2.00;;
58123;SDS011;46725;48.068;20.832;2023-04-02T18:22:58;4.05;;;1.02;;
58123;SDS011;46725;48.068;20.832;2023-04-02T18:25:38;9.88;;;3.25;;
58123;SDS011;46725;48.068;20.832;2023-04-02T18:28:23;5.78;;;2.92;;
58123;SDS011;46725;48.068;20.832;2023-04-02T18:38:46;5.15;;;2.25;;
58123;SDS011;46725;48.068;20.832;2023-04-02T18:43:49;3.20;;;1.35;;
58123;SDS011;46725;48.068;20.832;2023-04-02T18:51:21;3.95;;;1.08;;
58123;SDS011;46725;48.068;20.832;2023-04-02T18:53:48;4.85;;;2.22;;
58123;SDS011;46725;48.068;20.832;2023-04-02T18:56:16;5.53;;;1.90;;
58123;SDS011;46725;48.068;20.832;2023-04-02T19:01:18;5.32;;;1.70;;
58123;SDS011;46725;48.068;20.832;2023-04-02T19:03:48;3.45;;;0.90;;
58123;SDS011;46725;48.068;20.832;2023-04-02T19:06:28;6.15;;;2.00;;
58123;SDS011;46725;48.068;20.832;2023-04-02T19:09:00;5.07;;;0.82;;
58123;SDS011;46725;48.068;20.832;2023-04-02T19:11:27;2.25;;;0.80;;
58123;SDS011;46725;48.068;20.832;2023-04-02T19:14:01;2.78;;;0.90;;
58123;SDS011;46725;48.068;20.832;2023-04-02T19:19:24;2.67;;;0.98;;
58123;SDS011;46725;48.068;20.832;2023-04-02T19:29:35;2.63;;;1.00;;
58123;SDS011;46725;48.068;20.832;2023-04-02T19:32:10;2.97;;;1.10;;
58123;SDS011;46725;48.068;20.832;2023-04-02T19:34:38;3.80;;;1.30;;
58123;SDS011;46725;48.068;20.832;2023-04-02T19:37:10;3.30;;;1.08;;
58123;SDS011;46725;48.068;20.832;2023-04-02T19:42:13;2.85;;;1.20;;
58123;SDS011;46725;48.068;20.832;2023-04-02T19:44:44;4.82;;;1.77;;
58123;SDS011;46725;48.068;20.832;2023-04-02T19:47:11;3.10;;;1.30;;
58123;SDS011;46725;48.068;20.832;2023-04-02T19:49:38;8.07;;;2.47;;
58123;SDS011;46725;48.068;20.832;2023-04-02T19:52:04;3.03;;;1.17;;